createdAt,value
2023-03-23T16:03:49.822Z,27.13
2023-03-23T16:09:51.306Z,26.94
2023-03-23T16:15:53.222Z,26.81
2023-03-23T16:21:54.762Z,26.50
2023-03-23T16:27:56.373Z,26.23
2023-03-23T16:33:57.821Z,26.21
2023-03-23T16:40:00.287Z,26.01
2023-03-23T16:46:01.904Z,25.70
2023-03-23T16:52:03.466Z,25.60
2023-03-23T16:58:16.406Z,25.48
2023-03-23T17:04:18.779Z,24.96
2023-03-23T17:10:21.618Z,24.76
2023-03-23T17:16:23.115Z,24.44
2023-03-23T17:22:25.417Z,24.43
2023-03-23T17:28:26.992Z,24.38
2023-03-23T17:34:28.583Z,24.36
2023-03-23T17:40:30.226Z,24.33
2023-03-23T17:46:31.848Z,24.26
2023-03-23T17:52:34.075Z,24.10
2023-03-23T17:58:36.059Z,23.88
2023-03-23T18:04:37.526Z,23.75
2023-03-23T18:10:40.374Z,24.00
2023-03-23T18:16:42.710Z,24.07
2023-03-23T18:22:44.650Z,23.83
2023-03-23T18:28:47.297Z,23.57
2023-03-23T18:34:49.570Z,23.38
2023-03-23T18:40:51.637Z,23.28
2023-03-23T18:46:53.077Z,23.38
2023-03-23T18:52:54.650Z,23.36
2023-03-23T18:58:56.686Z,23.35
2023-03-23T19:04:58.456Z,23.30
2023-03-23T19:11:03.128Z,23.36
2023-03-23T19:17:06.205Z,23.26
2023-03-23T19:23:07.953Z,23.13
2023-03-23T19:35:18.757Z,23.31
2023-03-23T19:41:21.291Z,23.24
2023-03-23T19:47:22.862Z,22.91
2023-03-23T19:53:26.771Z,22.80
2023-03-23T19:59:28.545Z,22.87
2023-03-23T20:05:30.138Z,22.83
2023-03-23T20:11:31.917Z,22.73
2023-03-23T20:17:33.605Z,22.80
2023-03-23T20:23:36.234Z,22.80
2023-03-23T20:29:37.775Z,22.60
2023-03-23T20:35:39.882Z,22.54
2023-03-23T20:41:42.885Z,22.48
2023-03-23T20:47:44.586Z,22.65
2023-03-23T20:53:47.844Z,22.73
2023-03-23T20:59:52.616Z,22.76
2023-03-23T21:05:54.644Z,22.96
2023-03-23T21:11:56.860Z,23.16
2023-03-23T21:17:59.593Z,23.01
2023-03-23T21:24:01.388Z,23.12
2023-03-23T21:30:04.958Z,23.22
2023-03-23T21:36:07.027Z,23.25
2023-03-23T21:42:08.733Z,23.00
2023-03-23T21:48:11.973Z,23.17
2023-03-23T21:54:13.497Z,23.29
2023-03-23T22:00:15.350Z,23.07
2023-03-23T22:06:24.226Z,22.98
2023-03-23T22:12:25.914Z,22.62
2023-03-23T22:18:27.952Z,22.57
2023-03-23T22:24:30.037Z,22.57
2023-03-23T22:30:32.581Z,22.65
2023-03-23T22:36:34.128Z,22.78
2023-03-23T22:42:35.963Z,22.77
2023-03-23T22:48:37.898Z,22.77
2023-03-23T22:54:41.995Z,22.74
2023-03-23T23:00:46.611Z,22.79
2023-03-23T23:06:48.287Z,22.74
2023-03-23T23:12:49.814Z,22.64
2023-03-23T23:18:51.885Z,22.66
2023-03-23T23:24:53.658Z,22.58
2023-03-23T23:30:55.650Z,22.54
2023-03-23T23:36:58.889Z,22.56
2023-03-23T23:43:02.108Z,22.57
2023-03-23T23:49:03.851Z,22.69
2023-03-23T23:55:06.943Z,22.61
